Time;durP1;ratioP1;P1;durP2;ratioP2;P2;SDS_P1;SDS_P2;PMS_P1;PMS_P2;Temp;Humidity;BMP_temperature;BMP_pressure;BME280_temperature;BME280_humidity;BME280_pressure;Samples;Min_cycle;Max_cycle;Signal;HPM_P1;HPM_P2
2021/06/25 00:01:36;;;;;;;27.45;2.70;;;27.60;99.90;;;;;;5054366;28;20036;-73
2021/06/25 00:04:02;;;;;;;22.10;2.33;;;27.60;99.90;;;;;;5066487;28;20436;-73
2021/06/25 00:06:28;;;;;;;18.05;2.63;;;27.60;99.90;;;;;;5066263;28;20023;-75
2021/06/25 00:08:54;;;;;;;17.73;1.45;;;27.60;99.90;;;;;;5060913;28;20469;-74
2021/06/25 00:11:19;;;;;;;6.15;1.05;;;27.60;99.90;;;;;;5070215;28;20032;-74
2021/06/25 00:13:45;;;;;;;11.25;1.30;;;27.60;99.90;;;;;;5070875;28;20104;-73
2021/06/25 00:16:11;;;;;;;3.25;0.98;;;27.50;99.90;;;;;;5041651;28;20107;-75
2021/06/25 00:18:37;;;;;;;4.72;0.93;;;27.50;99.90;;;;;;5058519;28;20078;-75
2021/06/25 00:21:03;;;;;;;3.45;1.15;;;27.40;97.70;;;;;;5064821;28;20158;-74
2021/06/25 00:23:29;;;;;;;3.17;1.23;;;27.40;98.20;;;;;;5072459;28;20028;-75
2021/06/25 00:25:55;;;;;;;6.10;2.13;;;27.40;99.50;;;;;;5067316;28;20106;-75
2021/06/25 00:28:21;;;;;;;9.80;1.40;;;27.30;99.70;;;;;;5068812;28;20028;-74
2021/06/25 00:30:46;;;;;;;3.72;1.13;;;27.20;99.30;;;;;;5067747;28;20045;-75
2021/06/25 00:33:12;;;;;;;6.15;1.17;;;27.20;98.60;;;;;;5072317;28;20095;-74
2021/06/25 00:35:38;;;;;;;4.38;0.93;;;27.20;98.10;;;;;;5063202;28;20048;-74
2021/06/25 00:38:05;;;;;;;7.95;1.60;;;27.20;98.50;;;;;;5051909;28;20029;-74
2021/06/25 00:40:32;;;;;;;10.02;1.60;;;27.10;98.00;;;;;;5051679;28;20021;-75
2021/06/25 00:42:58;;;;;;;10.73;1.52;;;27.10;98.70;;;;;;5052324;28;20485;-73
2021/06/25 00:45:24;;;;;;;6.72;1.40;;;27.00;99.00;;;;;;5051511;28;20029;-74
2021/06/25 00:47:50;;;;;;;7.90;1.77;;;27.00;99.40;;;;;;5051137;28;20540;-75
2021/06/25 00:50:28;;;;;;;7.50;1.63;;;27.00;99.80;;;;;;5050548;28;20504;-75
2021/06/25 00:52:56;;;;;;;15.63;1.60;;;27.00;99.90;;;;;;5050185;28;20591;-74
2021/06/25 00:55:22;;;;;;;16.75;1.13;;;27.00;99.90;;;;;;5052094;28;20469;-74
2021/06/25 00:57:49;;;;;;;7.35;1.50;;;27.00;99.90;;;;;;5051215;28;20025;-74
2021/06/25 01:00:15;;;;;;;10.00;1.85;;;26.90;99.90;;;;;;5050990;28;20432;-74
2021/06/25 01:02:41;;;;;;;8.52;1.50;;;26.80;99.90;;;;;;5063039;28;20044;-75
2021/06/25 01:05:08;;;;;;;8.88;1.85;;;26.80;99.90;;;;;;5059932;28;20032;-74
2021/06/25 01:07:34;;;;;;;10.35;1.60;;;26.80;99.90;;;;;;5065363;28;20424;-74
2021/06/25 01:10:02;;;;;;;18.48;2.28;;;26.70;99.90;;;;;;5056815;28;20032;-74
2021/06/25 01:12:28;;;;;;;6.43;1.50;;;26.60;99.90;;;;;;5056026;28;20512;-74
2021/06/25 01:14:54;;;;;;;4.90;1.50;;;26.50;99.90;;;;;;5069006;28;20016;-75
2021/06/25 01:17:36;;;;;;;10.90;2.08;;;26.50;99.90;;;;;;5069884;28;20021;-75
2021/06/25 01:20:08;;;;;;;7.30;2.15;;;26.50;99.90;;;;;;5070495;28;20445;-75
2021/06/25 01:22:34;;;;;;;10.85;1.40;;;26.60;99.90;;;;;;5066568;28;20021;-75
2021/06/25 01:25:11;;;;;;;8.23;1.38;;;26.50;99.90;;;;;;5049165;28;20400;-74
2021/06/25 01:27:38;;;;;;;11.57;1.65;;;26.40;99.90;;;;;;5046679;28;20420;-74
2021/06/25 01:30:12;;;;;;;5.00;1.40;;;26.50;99.90;;;;;;5050573;28;20464;-74
2021/06/25 01:32:38;;;;;;;22.75;2.00;;;26.40;99.90;;;;;;5051483;28;20072;-75
2021/06/25 01:35:05;;;;;;;13.85;1.88;;;26.30;99.90;;;;;;5049270;28;20056;-74
2021/06/25 01:37:31;;;;;;;5.35;1.60;;;26.30;99.90;;;;;;5051636;28;20032;-75
2021/06/25 01:39:57;;;;;;;6.43;1.30;;;26.30;99.90;;;;;;5051545;28;20135;-75
2021/06/25 01:42:23;;;;;;;16.20;2.03;;;26.30;99.90;;;;;;5043515;28;20099;-74
2021/06/25 01:44:51;;;;;;;10.65;1.40;;;26.20;99.90;;;;;;5049769;28;20121;-75
2021/06/25 01:47:17;;;;;;;11.27;2.03;;;26.30;99.90;;;;;;5051017;28;20102;-76
2021/06/25 01:49:43;;;;;;;6.05;1.83;;;26.30;99.90;;;;;;5050822;28;20040;-74
2021/06/25 01:52:19;;;;;;;8.60;1.63;;;26.30;99.90;;;;;;5048736;28;20029;-74
2021/06/25 01:54:45;;;;;;;12.52;1.45;;;26.20;99.90;;;;;;5049183;28;20021;-74
2021/06/25 01:57:11;;;;;;;12.10;1.45;;;26.20;99.90;;;;;;5044623;28;20079;-75
2021/06/25 01:59:37;;;;;;;12.88;1.55;;;26.10;99.90;;;;;;5049999;28;20488;-75
2021/06/25 02:02:03;;;;;;;10.45;2.08;;;26.10;99.90;;;;;;5051645;28;20036;-74
2021/06/25 02:04:28;;;;;;;6.30;1.70;;;26.00;99.90;;;;;;5049414;28;20070;-74
2021/06/25 02:06:54;;;;;;;11.57;2.33;;;25.90;99.90;;;;;;5040686;28;20025;-74
2021/06/25 02:09:20;;;;;;;4.60;1.58;;;25.80;99.90;;;;;;5048976;28;20570;-74
2021/06/25 02:11:46;;;;;;;10.52;1.90;;;25.70;99.90;;;;;;5052176;28;20027;-74
2021/06/25 02:14:14;;;;;;;5.20;1.50;;;25.60;99.90;;;;;;5053649;28;20025;-74
2021/06/25 02:16:40;;;;;;;4.72;1.40;;;25.50;99.90;;;;;;5055062;28;20036;-74
2021/06/25 02:19:05;;;;;;;8.80;1.70;;;25.40;99.90;;;;;;5054585;28;20103;-73
2021/06/25 02:21:31;;;;;;;9.13;2.08;;;25.30;99.90;;;;;;5051068;28;20021;-74
2021/06/25 02:23:57;;;;;;;6.10;1.80;;;25.30;99.90;;;;;;5054982;28;20017;-75
2021/06/25 02:26:23;;;;;;;2.58;1.08;;;25.20;99.90;;;;;;5053380;28;20032;-73
2021/06/25 02:28:49;;;;;;;13.05;1.55;;;25.10;99.90;;;;;;5055058;28;20052;-74
2021/06/25 02:31:16;;;;;;;6.85;1.63;;;25.10;99.90;;;;;;5054631;28;20043;-73
2021/06/25 02:33:42;;;;;;;12.88;1.73;;;25.00;99.90;;;;;;5054539;28;20264;-74
2021/06/25 02:36:07;;;;;;;11.48;1.88;;;24.90;99.90;;;;;;5053163;28;20036;-74
2021/06/25 02:38:33;;;;;;;7.68;1.70;;;24.90;99.90;;;;;;5054618;28;20028;-73
2021/06/25 02:40:59;;;;;;;4.70;1.33;;;24.80;99.90;;;;;;5053276;28;20429;-74
2021/06/25 02:43:24;;;;;;;8.25;1.42;;;24.70;99.90;;;;;;5052813;28;20074;-74
2021/06/25 02:45:50;;;;;;;15.18;1.45;;;24.70;99.90;;;;;;5054664;28;20060;-74
2021/06/25 02:48:16;;;;;;;13.32;1.75;;;24.60;99.90;;;;;;5054514;28;20029;-73
2021/06/25 02:50:41;;;;;;;10.75;1.58;;;24.50;99.90;;;;;;5053946;28;20056;-74
2021/06/25 02:53:08;;;;;;;7.03;1.70;;;24.50;99.90;;;;;;5054481;28;20029;-74
2021/06/25 02:55:34;;;;;;;8.60;1.48;;;24.40;99.90;;;;;;5053005;28;20017;-74
2021/06/25 02:58:00;;;;;;;8.88;1.70;;;24.40;99.90;;;;;;5054339;28;20032;-74
2021/06/25 03:00:25;;;;;;;3.38;1.67;;;24.30;99.90;;;;;;5053743;28;20039;-75
2021/06/25 03:02:51;;;;;;;15.75;2.30;;;24.30;99.90;;;;;;5054336;28;20024;-74
2021/06/25 03:05:17;;;;;;;7.57;1.35;;;24.20;99.90;;;;;;5046886;28;20108;-73
2021/06/25 03:07:44;;;;;;;11.32;1.33;;;24.20;99.90;;;;;;5052356;28;20473;-74
2021/06/25 03:10:10;;;;;;;8.15;1.60;;;24.20;99.90;;;;;;5052559;28;20538;-74
2021/06/25 03:12:36;;;;;;;6.05;1.38;;;24.20;99.90;;;;;;5054024;28;20021;-75
2021/06/25 03:15:04;;;;;;;9.45;1.42;;;24.20;99.90;;;;;;5051758;28;20384;-74
2021/06/25 03:17:30;;;;;;;7.13;1.67;;;24.20;99.90;;;;;;5049614;28;20087;-73
2021/06/25 03:19:56;;;;;;;4.05;1.50;;;24.20;99.90;;;;;;5053672;28;20021;-74
2021/06/25 03:22:21;;;;;;;14.48;1.63;;;24.10;99.90;;;;;;5053540;28;20029;-73
2021/06/25 03:24:47;;;;;;;3.72;1.17;;;24.10;99.90;;;;;;5050195;28;20021;-74
2021/06/25 03:27:13;;;;;;;6.93;1.58;;;24.10;99.90;;;;;;5044133;28;20031;-75
2021/06/25 03:29:38;;;;;;;2.75;1.50;;;24.10;99.90;;;;;;5053169;28;20056;-73
2021/06/25 03:32:04;;;;;;;4.90;1.77;;;24.10;99.90;;;;;;5051566;28;20028;-74
2021/06/25 03:34:30;;;;;;;4.75;1.63;;;24.10;99.90;;;;;;5040204;28;20485;-74
2021/06/25 03:36:56;;;;;;;14.02;1.73;;;24.10;99.90;;;;;;5040551;28;20028;-74
2021/06/25 03:39:22;;;;;;;12.07;1.40;;;24.10;99.90;;;;;;5053706;28;20017;-73
2021/06/25 03:41:47;;;;;;;7.90;1.70;;;24.10;99.90;;;;;;5052449;28;20029;-74
2021/06/25 03:44:13;;;;;;;10.80;1.60;;;24.10;99.90;;;;;;5053022;28;20013;-74
2021/06/25 03:46:39;;;;;;;15.30;2.03;;;24.10;99.90;;;;;;5051771;28;20083;-74
2021/06/25 03:49:05;;;;;;;2.88;1.23;;;24.10;99.90;;;;;;5053128;28;20584;-74
2021/06/25 03:51:31;;;;;;;5.95;1.45;;;24.10;99.90;;;;;;5047823;28;20040;-73
2021/06/25 03:53:57;;;;;;;8.90;2.05;;;24.10;99.90;;;;;;5053710;28;20022;-75
2021/06/25 03:56:23;;;;;;;9.70;1.27;;;24.10;99.90;;;;;;5053056;28;20401;-74
2021/06/25 03:58:49;;;;;;;5.55;1.40;;;24.20;99.90;;;;;;5053380;28;20076;-74
2021/06/25 04:01:17;;;;;;;8.98;1.23;;;24.30;99.90;;;;;;5051295;28;20039;-74
2021/06/25 04:03:43;;;;;;;1.42;1.20;;;24.40;99.90;;;;;;5051652;28;20063;-75
2021/06/25 04:06:09;;;;;;;13.30;1.50;;;24.50;99.90;;;;;;5051093;28;20473;-74
2021/06/25 04:08:36;;;;;;;9.10;1.55;;;24.60;99.90;;;;;;5052437;28;20036;-75
2021/06/25 04:11:03;;;;;;;5.10;1.20;;;24.70;99.90;;;;;;5052118;28;20033;-75
2021/06/25 04:13:30;;;;;;;4.65;1.65;;;24.90;99.90;;;;;;5052901;28;20022;-75
2021/06/25 04:15:56;;;;;;;4.60;1.63;;;25.00;99.90;;;;;;5052455;28;20033;-74
2021/06/25 04:18:23;;;;;;;7.18;1.40;;;25.20;99.90;;;;;;5052904;28;20017;-75
2021/06/25 04:20:50;;;;;;;12.30;2.35;;;25.40;99.90;;;;;;5051339;28;20025;-74
2021/06/25 04:23:16;;;;;;;5.78;1.77;;;25.60;99.90;;;;;;5052984;28;20057;-75
2021/06/25 04:25:42;;;;;;;16.65;2.03;;;25.70;99.90;;;;;;5051202;28;20102;-73
2021/06/25 04:28:09;;;;;;;6.18;1.70;;;25.80;99.90;;;;;;5052184;28;20143;-74
2021/06/25 04:30:38;;;;;;;8.93;1.33;;;26.10;99.90;;;;;;5052198;28;20051;-74
2021/06/25 04:33:04;;;;;;;4.80;1.80;;;26.40;99.90;;;;;;5047552;28;20371;-74
2021/06/25 04:35:31;;;;;;;9.23;1.27;;;27.00;99.90;;;;;;5043945;28;20115;-74
2021/06/25 04:38:00;;;;;;;3.25;1.38;;;27.60;99.90;;;;;;5050792;28;20025;-75
2021/06/25 04:40:27;;;;;;;13.20;1.92;;;29.10;99.20;;;;;;5054964;28;20020;-75
2021/06/25 04:42:53;;;;;;;5.32;1.73;;;31.30;97.00;;;;;;5058782;28;20029;-76
2021/06/25 04:45:18;;;;;;;7.03;1.70;;;33.50;94.80;;;;;;5051444;28;20083;-75
2021/06/25 04:47:45;;;;;;;18.63;2.20;;;35.00;92.70;;;;;;5051860;28;20021;-75
2021/06/25 04:50:12;;;;;;;6.30;2.00;;;36.00;91.20;;;;;;5047391;28;20120;-74
2021/06/25 04:52:38;;;;;;;15.93;1.95;;;37.00;90.10;;;;;;5051938;28;20025;-75
2021/06/25 04:55:07;;;;;;;7.70;1.67;;;37.80;87.70;;;;;;5043445;28;20048;-75
2021/06/25 04:57:33;;;;;;;6.20;1.70;;;38.60;85.80;;;;;;5052264;28;20060;-75
2021/06/25 04:59:59;;;;;;;8.90;1.95;;;39.10;83.00;;;;;;5051630;28;20021;-75
2021/06/25 05:02:25;;;;;;;9.57;1.25;;;39.80;81.70;;;;;;5050034;28;20021;-75
2021/06/25 05:04:50;;;;;;;24.98;2.50;;;40.40;79.40;;;;;;5047346;28;20048;-75
2021/06/25 05:07:17;;;;;;;8.95;1.60;;;40.60;78.50;;;;;;5050411;28;20369;-76
2021/06/25 05:09:43;;;;;;;16.13;1.55;;;40.70;77.90;;;;;;5049399;28;20036;-74
2021/06/25 05:12:09;;;;;;;5.75;1.38;;;41.30;76.30;;;;;;5059231;28;20029;-76
2021/06/25 05:14:34;;;;;;;7.07;1.15;;;41.60;74.40;;;;;;5065089;28;20025;-76
2021/06/25 05:17:00;;;;;;;13.30;1.23;;;41.10;74.80;;;;;;5057996;28;20477;-75
2021/06/25 05:19:26;;;;;;;11.15;1.30;;;41.80;74.40;;;;;;5055987;28;20033;-75
2021/06/25 05:21:52;;;;;;;14.65;1.42;;;42.10;73.20;;;;;;5064809;28;20091;-76
2021/06/25 05:24:17;;;;;;;12.30;1.02;;;42.70;72.50;;;;;;5047125;28;20538;-76
2021/06/25 05:26:43;;;;;;;3.03;0.90;;;43.30;71.30;;;;;;5050051;28;20024;-73
2021/06/25 05:29:09;;;;;;;3.60;1.10;;;43.50;70.40;;;;;;5050954;28;20489;-75
2021/06/25 05:31:34;;;;;;;9.75;1.50;;;43.90;70.40;;;;;;5049199;28;20477;-74
2021/06/25 05:34:00;;;;;;;15.75;1.35;;;44.30;68.60;;;;;;5049945;28;20021;-74
2021/06/25 05:36:26;;;;;;;12.45;1.17;;;43.90;68.90;;;;;;5050536;28;20036;-75
2021/06/25 05:38:51;;;;;;;9.95;0.90;;;44.20;67.90;;;;;;5055807;28;20025;-75
2021/06/25 05:41:17;;;;;;;10.20;1.60;;;44.60;67.40;;;;;;5054641;28;20025;-76
2021/06/25 05:43:43;;;;;;;18.38;1.30;;;44.80;66.90;;;;;;5061799;28;20079;-75
2021/06/25 05:46:10;;;;;;;5.07;1.13;;;44.80;66.70;;;;;;5058303;28;20025;-74
2021/06/25 05:48:36;;;;;;;5.70;1.08;;;44.90;66.30;;;;;;5066155;28;20076;-75
2021/06/25 05:51:01;;;;;;;5.03;1.58;;;45.00;65.70;;;;;;5055224;28;20083;-76
2021/06/25 05:53:30;;;;;;;4.40;1.20;;;44.90;65.90;;;;;;5054030;28;20032;-76
2021/06/25 05:55:55;;;;;;;10.38;1.23;;;44.90;65.70;;;;;;5055395;28;20032;-76
2021/06/25 05:58:21;;;;;;;14.95;1.48;;;44.80;65.60;;;;;;5055266;28;20033;-75
2021/06/25 06:00:47;;;;;;;8.63;1.05;;;45.00;65.90;;;;;;5055123;28;20381;-75
2021/06/25 06:03:12;;;;;;;8.50;1.48;;;45.10;65.70;;;;;;5053473;28;20492;-76
2021/06/25 06:05:38;;;;;;;10.50;1.77;;;45.00;66.10;;;;;;5054218;28;20101;-76
2021/06/25 06:08:04;;;;;;;7.30;1.15;;;45.00;65.80;;;;;;5056012;28;20103;-76
2021/06/25 06:10:30;;;;;;;4.03;1.05;;;45.60;65.60;;;;;;5054047;28;20501;-75
2021/06/25 06:12:56;;;;;;;10.55;0.98;;;46.20;65.10;;;;;;5055226;28;20053;-76
2021/06/25 06:15:22;;;;;;;7.53;0.90;;;46.50;64.70;;;;;;5055300;28;20028;-76
2021/06/25 06:17:48;;;;;;;5.80;0.85;;;46.90;63.80;;;;;;5055260;28;20415;-75
2021/06/25 06:20:23;;;;;;;5.95;1.02;;;47.20;62.90;;;;;;5043292;28;20021;-76
2021/06/25 06:31:23;;;;;;;11.32;1.30;;;47.70;61.90;;;;;;5054501;28;20071;-75
2021/06/25 06:36:46;;;;;;;2.75;0.77;;;48.60;60.20;;;;;;5059252;28;20052;-76
2021/06/25 06:39:13;;;;;;;10.02;1.50;;;49.00;59.50;;;;;;5054014;28;20029;-76
2021/06/25 06:41:40;;;;;;;3.92;0.90;;;48.90;59.20;;;;;;5055281;28;20109;-75
2021/06/25 06:44:06;;;;;;;11.57;1.13;;;48.50;58.60;;;;;;5040346;28;20029;-76
2021/06/25 06:46:33;;;;;;;5.80;1.23;;;46.90;59.10;;;;;;5054548;28;20024;-76
2021/06/25 06:48:59;;;;;;;6.47;0.93;;;45.00;60.90;;;;;;5054830;28;20027;-76
2021/06/25 06:51:25;;;;;;;6.22;1.00;;;43.50;62.50;;;;;;5054992;28;20075;-75
2021/06/25 06:53:51;;;;;;;2.67;0.85;;;41.30;65.60;;;;;;5054541;28;20060;-75
2021/06/25 06:56:19;;;;;;;6.93;1.23;;;39.80;68.10;;;;;;5053647;28;20083;-76
2021/06/25 06:58:46;;;;;;;7.30;1.27;;;39.00;69.90;;;;;;5053762;28;20021;-76
2021/06/25 07:01:12;;;;;;;9.00;1.10;;;38.30;71.10;;;;;;5054419;28;20079;-76
2021/06/25 07:03:38;;;;;;;13.63;1.35;;;37.70;72.70;;;;;;5053349;28;20035;-75
2021/06/25 07:06:04;;;;;;;3.28;1.00;;;37.00;74.30;;;;;;5050149;28;20534;-76
2021/06/25 07:08:31;;;;;;;10.63;1.25;;;36.50;75.50;;;;;;5054530;28;20036;-75
2021/06/25 07:10:57;;;;;;;8.20;1.13;;;36.10;75.90;;;;;;5053400;28;20503;-75
2021/06/25 07:13:23;;;;;;;10.55;1.45;;;35.50;77.10;;;;;;5054219;28;20039;-75
2021/06/25 07:15:49;;;;;;;7.85;1.95;;;35.10;77.70;;;;;;5051441;28;20024;-75
2021/06/25 07:18:15;;;;;;;10.68;2.20;;;34.70;78.70;;;;;;5053760;28;20473;-76
2021/06/25 07:20:41;;;;;;;15.55;1.75;;;34.50;79.50;;;;;;5053945;28;20040;-75
2021/06/25 07:23:06;;;;;;;21.58;1.60;;;34.40;81.40;;;;;;5054318;28;20551;-76
2021/06/25 07:25:32;;;;;;;10.68;1.40;;;34.20;81.00;;;;;;5047342;28;20481;-76
2021/06/25 07:27:58;;;;;;;8.88;1.20;;;34.10;81.00;;;;;;5048819;28;20032;-75
2021/06/25 07:30:24;;;;;;;12.05;1.48;;;34.10;81.00;;;;;;5052862;28;20098;-76
2021/06/25 07:32:50;;;;;;;20.52;1.65;;;34.00;81.20;;;;;;5044286;28;20102;-77
2021/06/25 07:35:16;;;;;;;10.80;1.98;;;33.90;81.40;;;;;;5053123;28;20024;-76
2021/06/25 07:37:42;;;;;;;14.60;1.80;;;33.80;81.10;;;;;;5064143;28;20016;-76
2021/06/25 07:40:09;;;;;;;4.40;0.95;;;33.60;81.50;;;;;;5070063;28;20020;-75
2021/06/25 07:42:35;;;;;;;12.50;0.90;;;33.40;82.30;;;;;;5057318;28;20029;-76
2021/06/25 07:45:07;;;;;;;10.05;1.20;;;33.20;82.50;;;;;;5053212;28;20033;-77
2021/06/25 07:47:33;;;;;;;8.52;1.25;;;33.30;82.10;;;;;;5057925;28;20020;-76
2021/06/25 07:49:59;;;;;;;8.45;1.45;;;33.40;81.50;;;;;;5067974;28;20047;-76
2021/06/25 07:52:25;;;;;;;12.45;1.52;;;33.50;81.80;;;;;;5069940;28;20440;-76
2021/06/25 07:54:51;;;;;;;18.42;1.27;;;33.50;82.20;;;;;;5072337;28;20480;-76
2021/06/25 07:57:17;;;;;;;9.52;1.17;;;33.70;81.80;;;;;;5064462;28;20025;-76
2021/06/25 07:59:42;;;;;;;9.77;1.67;;;33.70;81.70;;;;;;5063830;28;20036;-76
2021/06/25 08:02:08;;;;;;;11.52;1.77;;;33.80;81.10;;;;;;5065128;28;20036;-76
2021/06/25 08:04:34;;;;;;;5.68;1.55;;;33.90;81.30;;;;;;5048401;28;20029;-77
2021/06/25 08:06:59;;;;;;;5.40;0.98;;;34.00;80.70;;;;;;5066975;28;20021;-76
2021/06/25 08:09:25;;;;;;;2.72;1.08;;;34.10;80.60;;;;;;5052242;28;20489;-77
2021/06/25 08:11:51;;;;;;;6.40;0.75;;;33.90;80.70;;;;;;5060029;28;20373;-76
2021/06/25 08:14:17;;;;;;;3.88;1.00;;;33.60;80.50;;;;;;5069315;28;20021;-76
2021/06/25 08:16:42;;;;;;;10.98;1.30;;;33.30;81.50;;;;;;5058880;28;20191;-77
2021/06/25 08:19:08;;;;;;;4.05;1.17;;;33.20;81.90;;;;;;5048593;28;20388;-76
2021/06/25 08:21:34;;;;;;;6.80;1.25;;;33.00;82.10;;;;;;5051258;28;20021;-76
2021/06/25 08:24:00;;;;;;;7.13;1.60;;;32.60;82.60;;;;;;5050276;28;20037;-76
2021/06/25 08:26:28;;;;;;;7.50;1.80;;;32.60;82.90;;;;;;5044111;28;20435;-76
2021/06/25 08:28:54;;;;;;;8.85;1.55;;;32.60;82.30;;;;;;5051402;28;20044;-76
2021/06/25 08:31:20;;;;;;;4.88;0.95;;;32.70;83.60;;;;;;5061833;28;20018;-76
2021/06/25 08:33:46;;;;;;;8.68;1.15;;;32.60;83.90;;;;;;5045944;28;20032;-77
2021/06/25 08:36:12;;;;;;;6.85;1.50;;;32.50;83.10;;;;;;5051654;28;20025;-76
2021/06/25 08:38:37;;;;;;;5.40;1.48;;;32.40;83.50;;;;;;5056390;28;20392;-76
2021/06/25 08:41:04;;;;;;;11.57;1.40;;;32.60;83.60;;;;;;5071230;28;20025;-76
2021/06/25 08:43:30;;;;;;;6.63;1.42;;;32.50;85.00;;;;;;5064880;28;20027;-76
2021/06/25 08:45:58;;;;;;;7.10;1.23;;;32.40;85.00;;;;;;5064777;28;20025;-75
2021/06/25 08:48:26;;;;;;;5.28;1.20;;;32.50;84.70;;;;;;5064732;28;20031;-76
2021/06/25 08:50:56;;;;;;;10.15;1.42;;;32.60;84.20;;;;;;5055798;28;20032;-76
2021/06/25 08:53:22;;;;;;;12.73;1.55;;;32.30;85.10;;;;;;5053801;28;20032;-76
2021/06/25 08:55:48;;;;;;;8.68;2.08;;;32.00;86.00;;;;;;5054756;28;20033;-76
2021/06/25 08:58:16;;;;;;;9.18;1.23;;;31.90;85.80;;;;;;5061598;28;20052;-76
2021/06/25 09:00:42;;;;;;;9.30;1.48;;;31.70;86.00;;;;;;5071257;28;20027;-76
2021/06/25 09:03:21;;;;;;;10.43;1.50;;;31.70;86.90;;;;;;5068815;28;20468;-76
2021/06/25 09:05:47;;;;;;;4.88;1.45;;;31.80;87.50;;;;;;5068290;28;20033;-76
2021/06/25 09:08:26;;;;;;;16.55;1.30;;;31.90;87.70;;;;;;5070295;28;20012;-76
2021/06/25 09:10:56;;;;;;;4.88;1.42;;;32.00;87.10;;;;;;5065354;28;20060;-76
2021/06/25 09:13:34;;;;;;;11.40;1.70;;;32.10;86.50;;;;;;5067918;28;20043;-76
2021/06/25 09:16:01;;;;;;;8.80;1.27;;;32.00;86.40;;;;;;5069331;28;20077;-76
2021/06/25 09:18:27;;;;;;;4.32;1.20;;;32.00;86.50;;;;;;5052902;28;20020;-75
2021/06/25 09:20:53;;;;;;;5.93;1.58;;;32.10;85.70;;;;;;5051155;28;20017;-77
2021/06/25 09:23:36;;;;;;;13.25;1.35;;;32.20;85.50;;;;;;5055656;28;20545;-76
2021/06/25 09:26:10;;;;;;;10.50;1.60;;;32.20;83.70;;;;;;5049978;28;20036;-76
2021/06/25 09:28:37;;;;;;;6.45;1.13;;;32.20;82.90;;;;;;5056262;28;20090;-76
2021/06/25 09:31:30;;;;;;;5.68;1.38;;;32.20;84.00;;;;;;5068909;28;20052;-76
2021/06/25 09:33:57;;;;;;;9.45;1.70;;;32.10;84.00;;;;;;5064048;28;20040;-75
2021/06/25 09:36:32;;;;;;;15.25;1.77;;;32.00;85.50;;;;;;5061947;28;20036;-76
2021/06/25 09:38:59;;;;;;;8.00;2.00;;;31.80;85.80;;;;;;5063433;28;20096;-77
2021/06/25 09:41:26;;;;;;;8.35;1.35;;;31.70;86.80;;;;;;5048654;28;20086;-76
2021/06/25 09:43:57;;;;;;;4.75;1.10;;;31.70;87.80;;;;;;5064857;28;20025;-75
2021/06/25 09:46:43;;;;;;;9.48;1.42;;;31.80;87.80;;;;;;5068624;28;20025;-76
2021/06/25 09:49:13;;;;;;;11.88;1.77;;;31.90;87.50;;;;;;5056757;28;20040;-76
2021/06/25 09:52:01;;;;;;;4.22;0.90;;;31.80;86.40;;;;;;5053607;28;20076;-76
2021/06/25 09:54:28;;;;;;;5.60;1.70;;;31.70;86.70;;;;;;5054344;28;20033;-76
2021/06/25 09:57:14;;;;;;;7.93;1.33;;;31.60;87.10;;;;;;5049562;28;20067;-76
2021/06/25 10:02:22;;;;;;;7.70;1.15;;;31.60;86.10;;;;;;5065074;28;20027;-76
2021/06/25 10:04:56;;;;;;;6.70;1.63;;;31.60;86.00;;;;;;5057210;28;20024;-76
2021/06/25 10:07:27;;;;;;;13.30;1.92;;;31.90;85.80;;;;;;5066228;28;20033;-76
2021/06/25 10:09:56;;;;;;;9.95;1.63;;;32.10;86.00;;;;;;5069259;28;20033;-76
2021/06/25 10:12:23;;;;;;;17.02;1.67;;;32.10;85.00;;;;;;5067639;28;20031;-76
2021/06/25 10:14:51;;;;;;;7.40;1.60;;;32.20;85.50;;;;;;5056079;28;20515;-77
2021/06/25 10:17:17;;;;;;;8.35;1.27;;;32.20;85.60;;;;;;5068213;28;20024;-76
2021/06/25 10:19:49;;;;;;;6.43;1.30;;;32.30;86.40;;;;;;5062611;28;20033;-76
2021/06/25 10:22:20;;;;;;;5.53;1.02;;;32.30;85.00;;;;;;5053656;28;20017;-76
2021/06/25 10:24:50;;;;;;;10.73;1.40;;;32.20;85.30;;;;;;5064582;28;20105;-76
2021/06/25 10:27:18;;;;;;;4.35;1.30;;;32.20;85.30;;;;;;5058346;28;20082;-77
2021/06/25 10:29:45;;;;;;;14.63;1.35;;;32.20;84.90;;;;;;5049275;28;20040;-76
2021/06/25 10:32:11;;;;;;;8.23;1.27;;;32.20;84.90;;;;;;5050678;28;20036;-77
2021/06/25 10:34:38;;;;;;;14.40;1.83;;;32.20;84.80;;;;;;5066460;28;20424;-77
2021/06/25 10:37:08;;;;;;;6.68;1.20;;;32.20;84.40;;;;;;5054037;28;20380;-76
2021/06/25 10:39:35;;;;;;;8.98;1.20;;;32.20;83.80;;;;;;5065524;28;20024;-76
2021/06/25 10:42:04;;;;;;;6.47;1.33;;;32.10;83.70;;;;;;5053768;28;20021;-76
2021/06/25 10:44:45;;;;;;;7.80;1.40;;;32.00;84.20;;;;;;5054325;28;20024;-76
2021/06/25 10:47:17;;;;;;;6.95;0.93;;;31.60;83.50;;;;;;5055425;28;20032;-77
2021/06/25 10:49:58;;;;;;;5.57;1.48;;;31.40;84.60;;;;;;5061016;28;20095;-76
2021/06/25 10:52:28;;;;;;;23.00;1.60;;;31.50;85.20;;;;;;5059479;28;20027;-77
2021/06/25 10:55:13;;;;;;;10.38;1.58;;;31.40;86.50;;;;;;5069718;28;20031;-77
2021/06/25 10:57:59;;;;;;;5.63;1.17;;;31.30;87.70;;;;;;5071034;28;20017;-77
2021/06/25 11:00:24;;;;;;;6.45;1.17;;;31.10;88.90;;;;;;5071617;28;20085;-77
2021/06/25 11:02:50;;;;;;;13.13;1.50;;;31.00;88.80;;;;;;5070251;28;20422;-77
2021/06/25 11:05:22;;;;;;;4.55;1.50;;;30.90;89.10;;;;;;5063361;28;20024;-77
2021/06/25 11:07:48;;;;;;;;;;;30.80;89.30;;;;;;5070074;28;20032;-78
2021/06/25 11:10:47;;;;;;;8.05;1.55;;;30.70;89.70;;;;;;5070759;28;19912;-77
2021/06/25 11:13:13;;;;;;;9.60;1.25;;;30.80;89.50;;;;;;5058822;28;20031;-77
2021/06/25 11:15:40;;;;;;;4.95;1.25;;;30.70;89.30;;;;;;5071547;28;20107;-77
2021/06/25 11:18:22;;;;;;;3.83;1.20;;;30.70;90.20;;;;;;5073741;28;20021;-77
2021/06/25 11:20:50;;;;;;;;;;;30.90;90.10;;;;;;5067542;28;20029;-77
2021/06/25 11:23:21;;;;;;;6.00;1.73;;;31.00;90.10;;;;;;5071702;28;19904;-78
2021/06/25 11:26:02;;;;;;;11.98;1.80;;;31.20;90.00;;;;;;5065599;28;20123;-77
2021/06/25 11:28:33;;;;;;;8.93;2.00;;;31.20;90.40;;;;;;5067852;28;20396;-77
2021/06/25 11:31:02;;;;;;;9.30;1.50;;;31.20;90.30;;;;;;5053259;28;20035;-77
2021/06/25 11:33:37;;;;;;;13.23;1.50;;;31.40;90.40;;;;;;5067031;28;20104;-78
2021/06/25 11:36:24;;;;;;;5.15;1.25;;;31.50;89.70;;;;;;5071390;28;20031;-77
2021/06/25 11:39:01;;;;;;;4.57;1.50;;;31.40;89.40;;;;;;5069752;28;20025;-77
2021/06/25 11:41:29;;;;;;;6.72;1.00;;;31.30;90.30;;;;;;5056202;28;20385;-78
2021/06/25 11:43:59;;;;;;;6.35;1.95;;;31.00;90.30;;;;;;5069289;28;20024;-77
2021/06/25 11:46:26;;;;;;;16.08;1.60;;;31.00;90.50;;;;;;5071261;28;20464;-77
2021/06/25 11:48:58;;;;;;;9.25;1.10;;;31.10;90.70;;;;;;5071417;28;20090;-77
2021/06/25 11:51:32;;;;;;;8.65;2.10;;;31.00;90.50;;;;;;5065737;28;20111;-77
2021/06/25 11:54:00;;;;;;;7.28;1.10;;;30.90;90.70;;;;;;5065157;28;20369;-77
2021/06/25 11:56:26;;;;;;;10.50;1.75;;;30.90;90.90;;;;;;5068487;28;20027;-77
2021/06/25 11:58:59;;;;;;;7.50;1.23;;;30.80;90.70;;;;;;5063104;28;20385;-77
2021/06/25 12:01:26;;;;;;;13.60;1.77;;;30.70;91.00;;;;;;5067108;28;20102;-76
2021/06/25 12:03:52;;;;;;;13.30;1.70;;;30.60;91.10;;;;;;5070986;28;20146;-77
2021/06/25 12:06:19;;;;;;;8.00;1.60;;;30.60;91.80;;;;;;5068552;28;20021;-78
2021/06/25 12:09:05;;;;;;;15.73;1.90;;;30.40;92.10;;;;;;5068639;28;20469;-78
2021/06/25 12:11:36;;;;;;;9.65;1.80;;;30.30;92.20;;;;;;5060940;28;20110;-77
2021/06/25 12:14:09;;;;;;;12.45;2.25;;;30.20;92.40;;;;;;5052039;28;20025;-77
2021/06/25 12:16:39;;;;;;;15.57;1.98;;;30.30;92.80;;;;;;5058335;28;20048;-77
2021/06/25 12:19:11;;;;;;;11.23;1.83;;;30.30;92.70;;;;;;5068593;28;20013;-77
2021/06/25 12:21:38;;;;;;;8.35;1.83;;;30.20;92.50;;;;;;5068783;28;20051;-77
2021/06/25 12:24:04;;;;;;;6.85;1.83;;;30.00;92.60;;;;;;5070238;28;20068;-77
2021/06/25 12:26:30;;;;;;;18.58;2.30;;;30.00;93.20;;;;;;5059531;28;20023;-77
2021/06/25 12:28:59;;;;;;;7.57;1.70;;;30.00;93.30;;;;;;5071540;28;20397;-77
2021/06/25 12:31:30;;;;;;;11.35;2.17;;;29.90;93.10;;;;;;5071265;28;20495;-77
2021/06/25 12:34:18;;;;;;;16.80;2.15;;;29.90;93.90;;;;;;5063064;28;20021;-77
2021/06/25 12:36:57;;;;;;;9.75;1.80;;;29.70;94.20;;;;;;5067576;28;20111;-77
2021/06/25 12:39:28;;;;;;;14.20;2.40;;;29.60;94.20;;;;;;5068851;28;20058;-78
2021/06/25 12:41:54;;;;;;;26.00;2.83;;;29.50;94.30;;;;;;5068087;28;20111;-77
2021/06/25 12:44:23;;;;;;;10.07;1.88;;;29.60;94.60;;;;;;5066747;28;20711;-77
2021/06/25 12:47:00;;;;;;;6.35;1.50;;;29.60;94.30;;;;;;5065253;28;20063;-78
2021/06/25 12:49:25;;;;;;;6.47;1.88;;;29.70;94.50;;;;;;5065556;28;20104;-77
2021/06/25 12:51:51;;;;;;;8.70;1.75;;;29.60;95.30;;;;;;5064255;28;20111;-77
2021/06/25 12:54:17;;;;;;;7.57;1.98;;;29.60;95.20;;;;;;5069612;28;20021;-78
2021/06/25 12:56:44;;;;;;;13.82;2.03;;;29.60;94.90;;;;;;5067415;28;20453;-77
2021/06/25 12:59:21;;;;;;;13.30;1.73;;;29.70;94.90;;;;;;5051734;28;20501;-77
2021/06/25 13:01:55;;;;;;;8.20;1.88;;;29.60;94.50;;;;;;5054618;28;20029;-77